aviador You're here:

OIBB Decoded Metar

BUSHEHR in IRAN
Report Time2017-10-17 19:50:00
UTC Time2017-10-17 20:37:08
Flight Rules vfr VFR
WindCalm
Visibility9999 m
Phenomena:N/A
Clouds:N/A
Expected CloudBase > 6,800 ft AGL from Temp-Dew spread
CeilingNone
Temp26°C (ISA +11)
Dew Point09°C (34% RH)
AAT25.8°C
QNH1008 hPa
Density Alt1,673 ft
Elevation62 ft
Report Wrong Elevation
Raw Report
OIBB 171950Z 00000KT CAVOK 26/09 Q1008 A2977=

Extra information for OIBB:More info

Metar Taf Metar & Taf Last 4 Metars F.Rules Stats Wind Profile Meteogram Temp Stats Airport Information Weather charts Add Link Nearby VenuesMetar ALERT Operation Metar Decoded Social comments